sensor_id;sensor_type;location;lat;lon;timestamp;pressure;altitude;pressure_sealevel;temperature;humidity
29385;BME280;16367;48.736;9.218;2023-06-26T00:01:19;-23819.63;;;20.70;62.58
29385;BME280;16367;48.736;9.218;2023-06-26T00:03:23;-23819.31;;;20.69;62.62
29385;BME280;16367;48.736;9.218;2023-06-26T00:05:26;-23819.00;;;20.68;62.78
29385;BME280;16367;48.736;9.218;2023-06-26T00:07:31;-23818.22;;;20.65;62.82
29385;BME280;16367;48.736;9.218;2023-06-26T00:09:35;-23817.75;;;20.64;62.28
29385;BME280;16367;48.736;9.218;2023-06-26T00:11:40;-23819.94;;;20.71;62.08
29385;BME280;16367;48.736;9.218;2023-06-26T00:13:46;-23819.78;;;20.70;62.23
29385;BME280;16367;48.736;9.218;2023-06-26T00:15:50;-23822.75;;;20.80;61.26
29385;BME280;16367;48.736;9.218;2023-06-26T00:17:54;-23825.13;;;20.88;60.55
29385;BME280;16367;48.736;9.218;2023-06-26T00:19:57;-23822.59;;;20.79;61.44
29385;BME280;16367;48.736;9.218;2023-06-26T00:22:00;-23817.44;;;20.63;63.33
29385;BME280;16367;48.736;9.218;2023-06-26T00:24:03;-23819.31;;;20.69;62.34
29385;BME280;16367;48.736;9.218;2023-06-26T00:26:07;-23817.44;;;20.63;62.79
29385;BME280;16367;48.736;9.218;2023-06-26T00:28:13;-23817.75;;;20.64;62.36
29385;BME280;16367;48.736;9.218;2023-06-26T00:30:16;-23814.28;;;20.53;62.19
29385;BME280;16367;48.736;9.218;2023-06-26T00:32:18;-23813.50;;;20.50;62.86
29385;BME280;16367;48.736;9.218;2023-06-26T00:34:21;-23811.31;;;20.43;63.47
29385;BME280;16367;48.736;9.218;2023-06-26T00:36:28;-23812.09;;;20.46;63.49
29385;BME280;16367;48.736;9.218;2023-06-26T00:38:31;-23811.63;;;20.44;63.37
29385;BME280;16367;48.736;9.218;2023-06-26T00:40:33;-23807.22;;;20.30;63.67
29385;BME280;16367;48.736;9.218;2023-06-26T00:42:36;-23807.84;;;20.32;63.48
29385;BME280;16367;48.736;9.218;2023-06-26T00:44:41;-23807.69;;;20.32;64.13
29385;BME280;16367;48.736;9.218;2023-06-26T00:46:43;-23804.09;;;20.20;64.96
29385;BME280;16367;48.736;9.218;2023-06-26T00:48:47;-23802.53;;;20.15;65.06
29385;BME280;16367;48.736;9.218;2023-06-26T00:50:50;-23803.63;;;20.19;65.19
29385;BME280;16367;48.736;9.218;2023-06-26T00:52:53;-23802.38;;;20.15;65.67
29385;BME280;16367;48.736;9.218;2023-06-26T00:55:01;-23802.19;;;20.14;65.93
29385;BME280;16367;48.736;9.218;2023-06-26T00:57:07;-23802.38;;;20.15;65.99
29385;BME280;16367;48.736;9.218;2023-06-26T00:59:10;-23802.06;;;20.14;66.19
29385;BME280;16367;48.736;9.218;2023-06-26T01:01:14;-23803.63;;;20.19;65.93
29385;BME280;16367;48.736;9.218;2023-06-26T01:03:19;-23801.56;;;20.12;66.47
29385;BME280;16367;48.736;9.218;2023-06-26T01:05:22;-23796.09;;;19.94;66.83
29385;BME280;16367;48.736;9.218;2023-06-26T01:07:25;-23796.88;;;19.97;66.89
29385;BME280;16367;48.736;9.218;2023-06-26T01:09:28;-23799.22;;;20.04;66.55
29385;BME280;16367;48.736;9.218;2023-06-26T01:11:31;-23794.66;;;19.90;66.43
29385;BME280;16367;48.736;9.218;2023-06-26T01:13:35;-23795.16;;;19.91;66.93
29385;BME280;16367;48.736;9.218;2023-06-26T01:15:40;-23795.78;;;19.93;66.88
29385;BME280;16367;48.736;9.218;2023-06-26T01:17:45;-23792.94;;;19.84;67.08
29385;BME280;16367;48.736;9.218;2023-06-26T01:19:49;-23797.81;;;20.00;66.79
29385;BME280;16367;48.736;9.218;2023-06-26T01:21:58;-23793.88;;;19.87;67.44
29385;BME280;16367;48.736;9.218;2023-06-26T01:24:09;-23791.53;;;19.80;66.98
29385;BME280;16367;48.736;9.218;2023-06-26T01:26:17;-23790.91;;;19.78;67.01
29385;BME280;16367;48.736;9.218;2023-06-26T01:28:22;-23792.47;;;19.83;67.08
29385;BME280;16367;48.736;9.218;2023-06-26T01:30:27;-23793.88;;;19.87;67.45
29385;BME280;16367;48.736;9.218;2023-06-26T01:32:33;-23790.44;;;19.76;67.35
29385;BME280;16367;48.736;9.218;2023-06-26T01:34:36;-23792.63;;;19.83;67.60
29385;BME280;16367;48.736;9.218;2023-06-26T01:36:39;-23792.63;;;19.83;67.42
29385;BME280;16367;48.736;9.218;2023-06-26T01:38:42;-23792.78;;;19.84;67.90
29385;BME280;16367;48.736;9.218;2023-06-26T01:40:44;-23792.94;;;19.84;67.63
29385;BME280;16367;48.736;9.218;2023-06-26T01:42:49;-23791.38;;;19.79;67.43
29385;BME280;16367;48.736;9.218;2023-06-26T01:44:54;-23789.19;;;19.72;67.93
29385;BME280;16367;48.736;9.218;2023-06-26T01:47:00;-23789.97;;;19.75;67.57
29385;BME280;16367;48.736;9.218;2023-06-26T01:49:07;-23791.22;;;19.79;67.33
29385;BME280;16367;48.736;9.218;2023-06-26T01:51:13;-23792.63;;;19.83;67.60
29385;BME280;16367;48.736;9.218;2023-06-26T01:53:18;-23790.75;;;19.77;67.82
29385;BME280;16367;48.736;9.218;2023-06-26T01:55:28;-23789.97;;;19.75;67.42
29385;BME280;16367;48.736;9.218;2023-06-26T01:57:39;-23791.69;;;19.80;66.70
29385;BME280;16367;48.736;9.218;2023-06-26T01:59:44;-23792.31;;;19.82;67.47
29385;BME280;16367;48.736;9.218;2023-06-26T02:01:49;-23792.94;;;19.84;66.75
29385;BME280;16367;48.736;9.218;2023-06-26T02:03:52;-23792.63;;;19.83;66.40
29385;BME280;16367;48.736;9.218;2023-06-26T02:05:55;-23794.19;;;19.88;66.80
29385;BME280;16367;48.736;9.218;2023-06-26T02:07:58;-23792.00;;;19.81;66.78
29385;BME280;16367;48.736;9.218;2023-06-26T02:10:03;-23791.06;;;19.78;67.41
29385;BME280;16367;48.736;9.218;2023-06-26T02:12:06;-23793.41;;;19.86;67.50
29385;BME280;16367;48.736;9.218;2023-06-26T02:14:09;-23793.72;;;19.87;67.14
29385;BME280;16367;48.736;9.218;2023-06-26T02:16:15;-23791.38;;;19.79;68.07
29385;BME280;16367;48.736;9.218;2023-06-26T02:18:18;-23788.72;;;19.71;67.60
29385;BME280;16367;48.736;9.218;2023-06-26T02:20:22;-23787.13;;;19.66;67.29
29385;BME280;16367;48.736;9.218;2023-06-26T02:22:25;-23785.41;;;19.60;68.27
29385;BME280;16367;48.736;9.218;2023-06-26T02:24:30;-23785.72;;;19.61;68.37
29385;BME280;16367;48.736;9.218;2023-06-26T02:26:34;-23786.81;;;19.65;68.39
29385;BME280;16367;48.736;9.218;2023-06-26T02:28:36;-23786.03;;;19.62;68.71
29385;BME280;16367;48.736;9.218;2023-06-26T02:30:39;-23785.41;;;19.60;68.59
29385;BME280;16367;48.736;9.218;2023-06-26T02:32:44;-23785.72;;;19.61;68.83
29385;BME280;16367;48.736;9.218;2023-06-26T02:34:47;-23783.22;;;19.53;69.37
29385;BME280;16367;48.736;9.218;2023-06-26T02:36:49;-23783.06;;;19.53;69.11
29385;BME280;16367;48.736;9.218;2023-06-26T02:38:55;-23778.34;;;19.38;69.46
29385;BME280;16367;48.736;9.218;2023-06-26T02:40:58;-23780.53;;;19.45;69.53
29385;BME280;16367;48.736;9.218;2023-06-26T02:43:01;-23778.81;;;19.39;69.72
29385;BME280;16367;48.736;9.218;2023-06-26T02:45:04;-23775.50;;;19.28;69.83
29385;BME280;16367;48.736;9.218;2023-06-26T02:47:07;-23775.03;;;19.27;70.06
29385;BME280;16367;48.736;9.218;2023-06-26T02:49:15;-23776.94;;;19.33;69.25
29385;BME280;16367;48.736;9.218;2023-06-26T02:51:19;-23776.78;;;19.32;69.36
29385;BME280;16367;48.736;9.218;2023-06-26T02:53:21;-23777.56;;;19.35;69.47
29385;BME280;16367;48.736;9.218;2023-06-26T02:55:24;-23780.53;;;19.45;68.77
29385;BME280;16367;48.736;9.218;2023-06-26T02:57:27;-23777.56;;;19.35;68.81
29385;BME280;16367;48.736;9.218;2023-06-26T02:59:30;-23778.19;;;19.37;69.07
29385;BME280;16367;48.736;9.218;2023-06-26T03:01:33;-23777.41;;;19.35;69.49
29385;BME280;16367;48.736;9.218;2023-06-26T03:03:36;-23776.94;;;19.33;69.06
29385;BME280;16367;48.736;9.218;2023-06-26T03:05:44;-23775.81;;;19.29;69.48
29385;BME280;16367;48.736;9.218;2023-06-26T03:07:47;-23780.38;;;19.44;68.64
29385;BME280;16367;48.736;9.218;2023-06-26T03:09:50;-23782.28;;;19.50;68.22
29385;BME280;16367;48.736;9.218;2023-06-26T03:11:55;-23781.00;;;19.46;68.15
29385;BME280;16367;48.736;9.218;2023-06-26T03:13:58;-23783.22;;;19.53;67.99
29385;BME280;16367;48.736;9.218;2023-06-26T03:16:01;-23784.16;;;19.56;67.91
29385;BME280;16367;48.736;9.218;2023-06-26T03:18:04;-23785.09;;;19.59;67.75
29385;BME280;16367;48.736;9.218;2023-06-26T03:20:07;-23786.34;;;19.63;67.87
29385;BME280;16367;48.736;9.218;2023-06-26T03:22:13;-23785.56;;;19.61;67.73
29385;BME280;16367;48.736;9.218;2023-06-26T03:24:15;-23787.91;;;19.68;67.74
29385;BME280;16367;48.736;9.218;2023-06-26T03:26:18;-23785.09;;;19.59;68.10
29385;BME280;16367;48.736;9.218;2023-06-26T03:28:21;-23786.66;;;19.64;68.00
29385;BME280;16367;48.736;9.218;2023-06-26T03:30:24;-23786.03;;;19.62;68.38
29385;BME280;16367;48.736;9.218;2023-06-26T03:32:27;-23788.41;;;19.70;68.38
29385;BME280;16367;48.736;9.218;2023-06-26T03:34:29;-23784.47;;;19.57;68.69
29385;BME280;16367;48.736;9.218;2023-06-26T03:36:32;-23786.19;;;19.63;68.75
29385;BME280;16367;48.736;9.218;2023-06-26T03:38:36;-23784.78;;;19.58;69.03
29385;BME280;16367;48.736;9.218;2023-06-26T03:40:39;-23782.75;;;19.52;69.23
29385;BME280;16367;48.736;9.218;2023-06-26T03:42:42;-23785.09;;;19.59;69.28
29385;BME280;16367;48.736;9.218;2023-06-26T03:44:45;-23786.19;;;19.63;69.08
29385;BME280;16367;48.736;9.218;2023-06-26T03:46:48;-23787.13;;;19.66;69.03
29385;BME280;16367;48.736;9.218;2023-06-26T03:48:51;-23790.13;;;19.75;69.04
29385;BME280;16367;48.736;9.218;2023-06-26T03:50:54;-23789.19;;;19.72;68.94
29385;BME280;16367;48.736;9.218;2023-06-26T03:52:56;-23787.63;;;19.67;69.59
29385;BME280;16367;48.736;9.218;2023-06-26T03:55:02;-23785.25;;;19.60;69.98
29385;BME280;16367;48.736;9.218;2023-06-26T03:57:05;-23786.50;;;19.64;70.02
29385;BME280;16367;48.736;9.218;2023-06-26T03:59:07;-23789.19;;;19.72;69.34
29385;BME280;16367;48.736;9.218;2023-06-26T04:01:10;-23790.13;;;19.75;69.37
29385;BME280;16367;48.736;9.218;2023-06-26T04:03:13;-23791.06;;;19.78;69.24
29385;BME280;16367;48.736;9.218;2023-06-26T04:05:16;-23789.97;;;19.75;69.66
29385;BME280;16367;48.736;9.218;2023-06-26T04:07:19;-23792.94;;;19.84;69.61
29385;BME280;16367;48.736;9.218;2023-06-26T04:09:21;-23799.69;;;20.06;68.78
29385;BME280;16367;48.736;9.218;2023-06-26T04:11:29;-23798.44;;;20.02;68.89
29385;BME280;16367;48.736;9.218;2023-06-26T04:13:32;-23807.69;;;20.32;68.00
29385;BME280;16367;48.736;9.218;2023-06-26T04:15:35;-23822.75;;;20.80;66.31
29385;BME280;16367;48.736;9.218;2023-06-26T04:17:38;-23829.34;;;21.01;64.99
29385;BME280;16367;48.736;9.218;2023-06-26T04:19:41;-23845.34;;;21.52;63.08
29385;BME280;16367;48.736;9.218;2023-06-26T04:21:44;-23847.69;;;21.60;62.23
29385;BME280;16367;48.736;9.218;2023-06-26T04:23:47;-23845.97;;;21.54;62.62
29385;BME280;16367;48.736;9.218;2023-06-26T04:25:50;-23856.00;;;21.87;61.41
29385;BME280;16367;48.736;9.218;2023-06-26T04:27:54;-23858.03;;;21.93;61.03
29385;BME280;16367;48.736;9.218;2023-06-26T04:29:57;-23852.53;;;21.76;61.32
29385;BME280;16367;48.736;9.218;2023-06-26T04:31:59;-23863.81;;;22.12;60.23
29385;BME280;16367;48.736;9.218;2023-06-26T04:34:02;-23869.13;;;22.29;59.31
29385;BME280;16367;48.736;9.218;2023-06-26T04:36:05;-23869.13;;;22.29;59.14
29385;BME280;16367;48.736;9.218;2023-06-26T04:38:08;-23857.88;;;21.93;60.01
29385;BME280;16367;48.736;9.218;2023-06-26T04:40:11;-23860.84;;;22.02;59.93
29385;BME280;16367;48.736;9.218;2023-06-26T04:42:15;-23888.72;;;22.92;57.16
29385;BME280;16367;48.736;9.218;2023-06-26T04:44:19;-23881.34;;;22.68;58.26
29385;BME280;16367;48.736;9.218;2023-06-26T04:46:22;-23875.88;;;22.51;58.66
29385;BME280;16367;48.736;9.218;2023-06-26T04:48:26;-23889.97;;;22.96;57.02
29385;BME280;16367;48.736;9.218;2023-06-26T04:50:30;-23876.66;;;22.53;57.79
29385;BME280;16367;48.736;9.218;2023-06-26T04:52:33;-23883.53;;;22.75;57.68
29385;BME280;16367;48.736;9.218;2023-06-26T04:54:36;-23892.94;;;23.06;56.32
29385;BME280;16367;48.736;9.218;2023-06-26T04:56:39;-23879.63;;;22.63;57.81
29385;BME280;16367;48.736;9.218;2023-06-26T04:58:42;-23901.38;;;23.33;56.30
29385;BME280;16367;48.736;9.218;2023-06-26T05:00:46;-23906.22;;;23.48;55.84
29385;BME280;16367;48.736;9.218;2023-06-26T05:02:53;-23900.91;;;23.31;55.68
29385;BME280;16367;48.736;9.218;2023-06-26T05:05:02;-23891.38;;;23.01;56.49
29385;BME280;16367;48.736;9.218;2023-06-26T05:07:05;-23903.56;;;23.40;55.67
29385;BME280;16367;48.736;9.218;2023-06-26T05:09:08;-23894.03;;;23.09;56.80
29385;BME280;16367;48.736;9.218;2023-06-26T05:11:12;-23914.81;;;23.76;55.08
29385;BME280;16367;48.736;9.218;2023-06-26T05:13:15;-23906.06;;;23.48;55.98
29385;BME280;16367;48.736;9.218;2023-06-26T05:15:19;-23908.41;;;23.55;54.87
29385;BME280;16367;48.736;9.218;2023-06-26T05:17:23;-23917.31;;;23.84;55.31
29385;BME280;16367;48.736;9.218;2023-06-26T05:19:26;-23916.69;;;23.82;55.33
29385;BME280;16367;48.736;9.218;2023-06-26T05:21:29;-23918.41;;;23.88;55.69
29385;BME280;16367;48.736;9.218;2023-06-26T05:23:33;-23907.63;;;23.53;55.84
29385;BME280;16367;48.736;9.218;2023-06-26T05:25:37;-23925.28;;;24.10;54.85
29385;BME280;16367;48.736;9.218;2023-06-26T05:27:40;-23926.25;;;24.13;54.89
29385;BME280;16367;48.736;9.218;2023-06-26T05:29:44;-23904.97;;;23.44;57.26
29385;BME280;16367;48.736;9.218;2023-06-26T05:31:49;-23918.88;;;23.89;55.86
29385;BME280;16367;48.736;9.218;2023-06-26T05:33:55;-23910.59;;;23.62;56.87
29385;BME280;16367;48.736;9.218;2023-06-26T05:36:04;-23903.41;;;23.39;57.36
29385;BME280;16367;48.736;9.218;2023-06-26T05:38:07;-23897.31;;;23.20;58.43
29385;BME280;16367;48.736;9.218;2023-06-26T05:40:12;-23911.69;;;23.66;57.63
29385;BME280;16367;48.736;9.218;2023-06-26T05:42:16;-23897.31;;;23.20;58.84
29385;BME280;16367;48.736;9.218;2023-06-26T05:44:19;-23897.31;;;23.20;59.34
29385;BME280;16367;48.736;9.218;2023-06-26T05:46:21;-23909.03;;;23.57;58.36
29385;BME280;16367;48.736;9.218;2023-06-26T05:48:26;-23913.56;;;23.72;58.72
29385;BME280;16367;48.736;9.218;2023-06-26T05:50:31;-23920.44;;;23.94;58.04
29385;BME280;16367;48.736;9.218;2023-06-26T05:52:35;-23917.63;;;23.85;58.38
29385;BME280;16367;48.736;9.218;2023-06-26T05:54:38;-23902.63;;;23.37;59.02
29385;BME280;16367;48.736;9.218;2023-06-26T05:56:41;-23916.06;;;23.80;59.21
29385;BME280;16367;48.736;9.218;2023-06-26T05:58:45;-23921.38;;;23.97;58.31
29385;BME280;16367;48.736;9.218;2023-06-26T06:00:48;-23916.69;;;23.82;58.77
29385;BME280;16367;48.736;9.218;2023-06-26T06:02:51;-23919.50;;;23.91;58.07
29385;BME280;16367;48.736;9.218;2023-06-26T06:04:55;-23927.31;;;24.16;57.85
29385;BME280;16367;48.736;9.218;2023-06-26T06:07:01;-23932.94;;;24.34;57.09
29385;BME280;16367;48.736;9.218;2023-06-26T06:09:03;-23935.28;;;24.42;57.45
29385;BME280;16367;48.736;9.218;2023-06-26T06:11:06;-23937.63;;;24.50;56.88
29385;BME280;16367;48.736;9.218;2023-06-26T06:13:09;-23948.25;;;24.84;55.21
29385;BME280;16367;48.736;9.218;2023-06-26T06:15:12;-23941.69;;;24.63;56.05
29385;BME280;16367;48.736;9.218;2023-06-26T06:17:15;-23961.38;;;25.26;53.88
29385;BME280;16367;48.736;9.218;2023-06-26T06:19:18;-23966.66;;;25.43;52.93
29385;BME280;16367;48.736;9.218;2023-06-26T06:21:21;-23978.69;;;25.82;52.14
29385;BME280;16367;48.736;9.218;2023-06-26T06:23:26;-23982.56;;;25.95;52.04
29385;BME280;16367;48.736;9.218;2023-06-26T06:25:29;-23989.28;;;26.16;51.15
29385;BME280;16367;48.736;9.218;2023-06-26T06:27:32;-23982.56;;;25.95;51.66
29385;BME280;16367;48.736;9.218;2023-06-26T06:29:35;-23987.56;;;26.11;50.70
29385;BME280;16367;48.736;9.218;2023-06-26T06:31:38;-23980.69;;;25.88;51.29
29385;BME280;16367;48.736;9.218;2023-06-26T06:33:41;-23988.50;;;26.14;50.74
29385;BME280;16367;48.736;9.218;2023-06-26T06:35:43;-23997.22;;;26.42;49.94
29385;BME280;16367;48.736;9.218;2023-06-26T06:37:46;-23999.72;;;26.50;50.11
29385;BME280;16367;48.736;9.218;2023-06-26T06:39:51;-23990.06;;;26.19;50.40
29385;BME280;16367;48.736;9.218;2023-06-26T06:41:54;-24005.16;;;26.68;49.97
29385;BME280;16367;48.736;9.218;2023-06-26T06:43:57;-24007.50;;;26.75;49.20
29385;BME280;16367;48.736;9.218;2023-06-26T06:46:00;-24012.50;;;26.91;48.18
29385;BME280;16367;48.736;9.218;2023-06-26T06:48:03;-24011.25;;;26.87;48.50
29385;BME280;16367;48.736;9.218;2023-06-26T06:50:06;-24017.78;;;27.08;48.54
29385;BME280;16367;48.736;9.218;2023-06-26T06:52:12;-24020.44;;;27.17;47.57
29385;BME280;16367;48.736;9.218;2023-06-26T06:54:16;-24027.44;;;27.40;47.47
29385;BME280;16367;48.736;9.218;2023-06-26T06:56:20;-24019.03;;;27.12;48.32
29385;BME280;16367;48.736;9.218;2023-06-26T06:58:23;-24038.34;;;27.75;46.57
29385;BME280;16367;48.736;9.218;2023-06-26T07:00:26;-24048.28;;;28.07;46.28
29385;BME280;16367;48.736;9.218;2023-06-26T07:02:29;-24064.28;;;28.59;44.70
29385;BME280;16367;48.736;9.218;2023-06-26T07:04:32;-24084.50;;;29.24;43.58
29385;BME280;16367;48.736;9.218;2023-06-26T07:06:34;-24095.66;;;29.61;43.34
29385;BME280;16367;48.736;9.218;2023-06-26T07:08:37;-24087.59;;;29.34;43.34
29385;BME280;16367;48.736;9.218;2023-06-26T07:10:40;-24093.34;;;29.53;42.03
29385;BME280;16367;48.736;9.218;2023-06-26T07:12:45;-24089.78;;;29.41;42.53
29385;BME280;16367;48.736;9.218;2023-06-26T07:14:48;-24082.78;;;29.19;43.79
29385;BME280;16367;48.736;9.218;2023-06-26T07:16:51;-24095.34;;;29.60;42.07
29385;BME280;16367;48.736;9.218;2023-06-26T07:18:53;-24097.38;;;29.66;42.30
29385;BME280;16367;48.736;9.218;2023-06-26T07:20:56;-24105.59;;;29.93;42.76
29385;BME280;16367;48.736;9.218;2023-06-26T07:22:59;-24126.53;;;30.61;40.58
29385;BME280;16367;48.736;9.218;2023-06-26T07:25:02;-24124.97;;;30.56;39.55
29385;BME280;16367;48.736;9.218;2023-06-26T07:27:06;-24149.16;;;31.34;39.18
29385;BME280;16367;48.736;9.218;2023-06-26T07:29:10;-24145.28;;;31.22;38.11
29385;BME280;16367;48.736;9.218;2023-06-26T07:31:13;-24134.13;;;30.85;39.10
29385;BME280;16367;48.736;9.218;2023-06-26T07:33:17;-24120.94;;;30.43;39.30
29385;BME280;16367;48.736;9.218;2023-06-26T07:35:20;-24131.19;;;30.76;39.21
29385;BME280;16367;48.736;9.218;2023-06-26T07:37:23;-24186.44;;;32.56;36.88
29385;BME280;16367;48.736;9.218;2023-06-26T07:39:26;-24124.38;;;30.54;39.45
29385;BME280;16367;48.736;9.218;2023-06-26T07:41:29;-24115.38;;;30.25;40.08
29385;BME280;16367;48.736;9.218;2023-06-26T07:43:33;-24150.38;;;31.38;38.13
29385;BME280;16367;48.736;9.218;2023-06-26T07:45:37;-24155.81;;;31.56;37.75
29385;BME280;16367;48.736;9.218;2023-06-26T07:47:40;-24122.19;;;30.47;38.86
29385;BME280;16367;48.736;9.218;2023-06-26T07:49:43;-24130.09;;;30.72;38.92
29385;BME280;16367;48.736;9.218;2023-06-26T07:51:46;-24148.84;;;31.33;38.57
29385;BME280;16367;48.736;9.218;2023-06-26T07:53:48;-24135.53;;;30.90;40.38
29385;BME280;16367;48.736;9.218;2023-06-26T07:55:51;-24155.19;;;31.54;38.40
29385;BME280;16367;48.736;9.218;2023-06-26T07:57:54;-24166.19;;;31.90;37.76
29385;BME280;16367;48.736;9.218;2023-06-26T07:59:57;-24120.94;;;30.43;39.73
29385;BME280;16367;48.736;9.218;2023-06-26T08:02:01;-24180.09;;;32.35;37.28
29385;BME280;16367;48.736;9.218;2023-06-26T08:04:04;-24151.00;;;31.40;38.89
29385;BME280;16367;48.736;9.218;2023-06-26T08:06:07;-24139.25;;;31.02;39.16
29385;BME280;16367;48.736;9.218;2023-06-26T08:08:13;-24146.38;;;31.25;38.54
29385;BME280;16367;48.736;9.218;2023-06-26T08:10:16;-24170.34;;;32.03;37.83
29385;BME280;16367;48.736;9.218;2023-06-26T08:12:19;-24195.25;;;32.84;36.98
29385;BME280;16367;48.736;9.218;2023-06-26T08:14:22;-24156.28;;;31.57;38.35
29385;BME280;16367;48.736;9.218;2023-06-26T08:16:25;-24170.81;;;32.05;37.50
29385;BME280;16367;48.736;9.218;2023-06-26T08:18:29;-24197.41;;;32.91;35.63
29385;BME280;16367;48.736;9.218;2023-06-26T08:20:32;-24152.72;;;31.46;37.25
29385;BME280;16367;48.736;9.218;2023-06-26T08:22:38;-24231.25;;;34.02;33.54
29385;BME280;16367;48.736;9.218;2023-06-26T08:24:40;-24178.25;;;32.29;36.91
29385;BME280;16367;48.736;9.218;2023-06-26T08:26:44;-24194.34;;;32.81;36.58
29385;BME280;16367;48.736;9.218;2023-06-26T08:28:47;-24150.22;;;31.38;37.28
29385;BME280;16367;48.736;9.218;2023-06-26T08:30:50;-24187.84;;;32.60;36.42
29385;BME280;16367;48.736;9.218;2023-06-26T08:32:54;-24185.81;;;32.54;36.65
29385;BME280;16367;48.736;9.218;2023-06-26T08:34:58;-24175.16;;;32.19;36.20
29385;BME280;16367;48.736;9.218;2023-06-26T08:37:01;-24130.09;;;30.72;38.19
29385;BME280;16367;48.736;9.218;2023-06-26T08:39:05;-24162.00;;;31.76;37.41
29385;BME280;16367;48.736;9.218;2023-06-26T08:41:10;-24168.81;;;31.98;37.78
29385;BME280;16367;48.736;9.218;2023-06-26T08:43:13;-24226.13;;;33.85;34.30
29385;BME280;16367;48.736;9.218;2023-06-26T08:45:16;-24210.41;;;33.34;34.70
29385;BME280;16367;48.736;9.218;2023-06-26T08:47:19;-24142.03;;;31.11;38.63
29385;BME280;16367;48.736;9.218;2023-06-26T08:49:29;-24165.56;;;31.88;38.17
29385;BME280;16367;48.736;9.218;2023-06-26T08:51:35;-24186.91;;;32.57;36.77
29385;BME280;16367;48.736;9.218;2023-06-26T08:53:43;-24181.81;;;32.41;36.23
29385;BME280;16367;48.736;9.218;2023-06-26T08:55:49;-24179.50;;;32.33;36.69
29385;BME280;16367;48.736;9.218;2023-06-26T08:57:54;-24180.56;;;32.36;36.82
29385;BME280;16367;48.736;9.218;2023-06-26T08:59:57;-24159.06;;;31.67;37.43
29385;BME280;16367;48.736;9.218;2023-06-26T09:02:00;-24188.59;;;32.63;36.79
29385;BME280;16367;48.736;9.218;2023-06-26T09:04:05;-24224.91;;;33.81;34.78
29385;BME280;16367;48.736;9.218;2023-06-26T09:06:08;-24217.19;;;33.56;34.66
29385;BME280;16367;48.736;9.218;2023-06-26T09:08:12;-24213.19;;;33.43;34.70
29385;BME280;16367;48.736;9.218;2023-06-26T09:10:16;-24249.13;;;34.60;33.67
29385;BME280;16367;48.736;9.218;2023-06-26T09:12:20;-24248.97;;;34.60;33.98
29385;BME280;16367;48.736;9.218;2023-06-26T09:14:23;-24223.53;;;33.76;34.70
29385;BME280;16367;48.736;9.218;2023-06-26T09:16:26;-24212.56;;;33.41;35.36
29385;BME280;16367;48.736;9.218;2023-06-26T09:18:29;-24205.44;;;33.18;35.07
29385;BME280;16367;48.736;9.218;2023-06-26T09:20:32;-24171.91;;;32.08;36.65
29385;BME280;16367;48.736;9.218;2023-06-26T09:22:37;-24142.97;;;31.14;38.08
29385;BME280;16367;48.736;9.218;2023-06-26T09:24:43;-24172.84;;;32.11;36.65
29385;BME280;16367;48.736;9.218;2023-06-26T09:26:46;-24161.69;;;31.75;37.65
29385;BME280;16367;48.736;9.218;2023-06-26T09:28:49;-24132.72;;;30.81;38.55
29385;BME280;16367;48.736;9.218;2023-06-26T09:30:54;-24125.91;;;30.59;38.77
29385;BME280;16367;48.736;9.218;2023-06-26T09:32:56;-24166.03;;;31.89;36.49
29385;BME280;16367;48.736;9.218;2023-06-26T09:35:01;-24201.44;;;33.04;35.93
29385;BME280;16367;48.736;9.218;2023-06-26T09:37:05;-24202.66;;;33.08;34.66
29385;BME280;16367;48.736;9.218;2023-06-26T09:39:08;-24188.75;;;32.63;35.49
29385;BME280;16367;48.736;9.218;2023-06-26T09:41:17;-24187.84;;;32.60;35.89
29385;BME280;16367;48.736;9.218;2023-06-26T09:43:20;-24167.09;;;31.93;37.32
29385;BME280;16367;48.736;9.218;2023-06-26T09:45:23;-24197.13;;;32.90;35.77
29385;BME280;16367;48.736;9.218;2023-06-26T09:47:26;-24198.03;;;32.93;35.14
29385;BME280;16367;48.736;9.218;2023-06-26T09:49:29;-24159.06;;;31.67;36.55
29385;BME280;16367;48.736;9.218;2023-06-26T09:51:32;-24133.34;;;30.83;38.53
29385;BME280;16367;48.736;9.218;2023-06-26T09:53:36;-24172.06;;;32.09;36.98
29385;BME280;16367;48.736;9.218;2023-06-26T09:55:39;-24172.84;;;32.11;36.38
29385;BME280;16367;48.736;9.218;2023-06-26T09:57:47;-24197.25;;;32.91;35.64
29385;BME280;16367;48.736;9.218;2023-06-26T09:59:50;-24215.66;;;33.51;34.66
29385;BME280;16367;48.736;9.218;2023-06-26T10:01:58;-24201.13;;;33.03;35.02
29385;BME280;16367;48.736;9.218;2023-06-26T10:04:02;-24138.31;;;30.99;37.46
29385;BME280;16367;48.736;9.218;2023-06-26T10:06:09;-24158.44;;;31.64;36.98
29385;BME280;16367;48.736;9.218;2023-06-26T10:08:11;-24126.38;;;30.60;38.89
29385;BME280;16367;48.736;9.218;2023-06-26T10:10:16;-24132.13;;;30.79;38.60
29385;BME280;16367;48.736;9.218;2023-06-26T10:12:22;-24141.72;;;31.10;38.26
29385;BME280;16367;48.736;9.218;2023-06-26T10:14:32;-24146.97;;;31.27;38.31
29385;BME280;16367;48.736;9.218;2023-06-26T10:16:37;-24113.97;;;30.20;40.67
29385;BME280;16367;48.736;9.218;2023-06-26T10:18:43;-24146.38;;;31.25;39.14
29385;BME280;16367;48.736;9.218;2023-06-26T10:20:48;-24174.53;;;32.17;37.09
29385;BME280;16367;48.736;9.218;2023-06-26T10:22:51;-24120.94;;;30.43;39.94
29385;BME280;16367;48.736;9.218;2023-06-26T10:24:55;-24164.31;;;31.84;38.26
29385;BME280;16367;48.736;9.218;2023-06-26T10:27:03;-24171.75;;;32.08;38.65
29385;BME280;16367;48.736;9.218;2023-06-26T10:29:10;-24162.16;;;31.77;38.27
29385;BME280;16367;48.736;9.218;2023-06-26T10:31:16;-24146.38;;;31.25;39.76
29385;BME280;16367;48.736;9.218;2023-06-26T10:33:19;-24143.13;;;31.15;39.66
29385;BME280;16367;48.736;9.218;2023-06-26T10:35:24;-24138.94;;;31.01;40.26
29385;BME280;16367;48.736;9.218;2023-06-26T10:37:41;-24141.25;;;31.09;40.18
29385;BME280;16367;48.736;9.218;2023-06-26T10:39:48;-24130.25;;;30.73;41.82
29385;BME280;16367;48.736;9.218;2023-06-26T10:41:54;-24118.31;;;30.34;42.32
29385;BME280;16367;48.736;9.218;2023-06-26T10:44:08;-24113.19;;;30.17;43.15
29385;BME280;16367;48.736;9.218;2023-06-26T10:46:11;-24100.94;;;29.78;43.30
29385;BME280;16367;48.736;9.218;2023-06-26T10:48:18;-24102.81;;;29.84;43.42